sensor_id;sensor_type;location;lat;lon;timestamp;temperature;humidity
22716;DHT22;11525;51.152;4.456;2023-06-10T00:01:59;22.70;92.10
22716;DHT22;11525;51.152;4.456;2023-06-10T00:04:26;22.60;92.50
22716;DHT22;11525;51.152;4.456;2023-06-10T00:06:56;22.60;92.70
22716;DHT22;11525;51.152;4.456;2023-06-10T00:09:22;22.60;92.90
22716;DHT22;11525;51.152;4.456;2023-06-10T00:11:48;22.70;92.80
22716;DHT22;11525;51.152;4.456;2023-06-10T00:14:16;22.60;93.00
22716;DHT22;11525;51.152;4.456;2023-06-10T00:16:42;22.50;93.30
22716;DHT22;11525;51.152;4.456;2023-06-10T00:19:11;22.40;94.00
22716;DHT22;11525;51.152;4.456;2023-06-10T00:21:39;22.30;94.50
22716;DHT22;11525;51.152;4.456;2023-06-10T00:24:10;22.40;94.40
22716;DHT22;11525;51.152;4.456;2023-06-10T00:26:38;22.50;94.20
22716;DHT22;11525;51.152;4.456;2023-06-10T00:29:07;22.30;95.00
22716;DHT22;11525;51.152;4.456;2023-06-10T00:31:37;22.30;95.40
22716;DHT22;11525;51.152;4.456;2023-06-10T00:34:04;22.30;95.50
22716;DHT22;11525;51.152;4.456;2023-06-10T00:36:32;22.30;95.60
22716;DHT22;11525;51.152;4.456;2023-06-10T00:38:58;22.10;96.70
22716;DHT22;11525;51.152;4.456;2023-06-10T00:41:25;22.10;96.80
22716;DHT22;11525;51.152;4.456;2023-06-10T00:43:53;22.00;97.20
22716;DHT22;11525;51.152;4.456;2023-06-10T00:46:20;22.10;97.30
22716;DHT22;11525;51.152;4.456;2023-06-10T00:48:46;22.30;96.80
22716;DHT22;11525;51.152;4.456;2023-06-10T00:51:13;22.20;97.20
22716;DHT22;11525;51.152;4.456;2023-06-10T00:53:40;22.20;97.60
22716;DHT22;11525;51.152;4.456;2023-06-10T00:56:07;22.10;98.00
22716;DHT22;11525;51.152;4.456;2023-06-10T00:58:33;21.90;98.90
22716;DHT22;11525;51.152;4.456;2023-06-10T01:00:59;21.80;99.70
22716;DHT22;11525;51.152;4.456;2023-06-10T01:03:29;22.00;99.50
22716;DHT22;11525;51.152;4.456;2023-06-10T01:06:04;21.90;99.90
22716;DHT22;11525;51.152;4.456;2023-06-10T01:08:37;21.80;99.90
22716;DHT22;11525;51.152;4.456;2023-06-10T01:11:24;21.70;99.90
22716;DHT22;11525;51.152;4.456;2023-06-10T01:13:50;21.60;99.90
22716;DHT22;11525;51.152;4.456;2023-06-10T01:16:19;21.70;99.90
22716;DHT22;11525;51.152;4.456;2023-06-10T01:18:45;21.50;99.90
22716;DHT22;11525;51.152;4.456;2023-06-10T01:21:20;21.50;99.90
22716;DHT22;11525;51.152;4.456;2023-06-10T01:23:47;21.60;99.90
22716;DHT22;11525;51.152;4.456;2023-06-10T01:26:14;21.40;99.90
22716;DHT22;11525;51.152;4.456;2023-06-10T01:28:47;21.30;99.90
22716;DHT22;11525;51.152;4.456;2023-06-10T01:31:38;21.30;99.90
22716;DHT22;11525;51.152;4.456;2023-06-10T01:34:16;21.20;99.90
22716;DHT22;11525;51.152;4.456;2023-06-10T01:36:44;21.20;99.90
22716;DHT22;11525;51.152;4.456;2023-06-10T01:39:15;21.30;99.90
22716;DHT22;11525;51.152;4.456;2023-06-10T01:41:42;21.30;99.90
22716;DHT22;11525;51.152;4.456;2023-06-10T01:44:09;21.30;99.90
22716;DHT22;11525;51.152;4.456;2023-06-10T01:46:35;21.20;99.90
22716;DHT22;11525;51.152;4.456;2023-06-10T01:49:00;21.10;99.90
22716;DHT22;11525;51.152;4.456;2023-06-10T01:51:26;21.10;99.90
22716;DHT22;11525;51.152;4.456;2023-06-10T01:53:52;21.10;99.90
22716;DHT22;11525;51.152;4.456;2023-06-10T01:56:18;21.00;99.90
22716;DHT22;11525;51.152;4.456;2023-06-10T01:58:46;21.20;99.90
22716;DHT22;11525;51.152;4.456;2023-06-10T02:01:15;21.10;99.90
22716;DHT22;11525;51.152;4.456;2023-06-10T02:03:48;21.10;99.90
22716;DHT22;11525;51.152;4.456;2023-06-10T02:06:14;21.10;99.90
22716;DHT22;11525;51.152;4.456;2023-06-10T02:08:40;21.00;99.90
22716;DHT22;11525;51.152;4.456;2023-06-10T02:11:06;21.00;99.90
22716;DHT22;11525;51.152;4.456;2023-06-10T02:13:33;20.90;99.90
22716;DHT22;11525;51.152;4.456;2023-06-10T02:16:01;20.90;99.90
22716;DHT22;11525;51.152;4.456;2023-06-10T02:18:28;20.90;99.90
22716;DHT22;11525;51.152;4.456;2023-06-10T02:20:54;21.00;99.90
22716;DHT22;11525;51.152;4.456;2023-06-10T02:23:20;21.00;99.90
22716;DHT22;11525;51.152;4.456;2023-06-10T02:25:46;21.00;99.90
22716;DHT22;11525;51.152;4.456;2023-06-10T02:28:13;21.00;99.90
22716;DHT22;11525;51.152;4.456;2023-06-10T02:30:41;20.90;99.90
22716;DHT22;11525;51.152;4.456;2023-06-10T02:33:07;20.80;99.90
22716;DHT22;11525;51.152;4.456;2023-06-10T02:35:40;20.80;99.90
22716;DHT22;11525;51.152;4.456;2023-06-10T02:38:07;20.70;99.90
22716;DHT22;11525;51.152;4.456;2023-06-10T02:40:32;20.70;99.90
22716;DHT22;11525;51.152;4.456;2023-06-10T02:42:58;20.70;99.90
22716;DHT22;11525;51.152;4.456;2023-06-10T02:45:24;20.70;99.90
22716;DHT22;11525;51.152;4.456;2023-06-10T02:47:50;20.70;99.90
22716;DHT22;11525;51.152;4.456;2023-06-10T02:50:24;20.60;99.90
22716;DHT22;11525;51.152;4.456;2023-06-10T02:52:50;20.50;99.90
22716;DHT22;11525;51.152;4.456;2023-06-10T02:55:16;20.50;99.90
22716;DHT22;11525;51.152;4.456;2023-06-10T02:57:41;20.40;99.90
22716;DHT22;11525;51.152;4.456;2023-06-10T03:00:11;20.40;99.90
22716;DHT22;11525;51.152;4.456;2023-06-10T03:02:37;20.30;99.90
22716;DHT22;11525;51.152;4.456;2023-06-10T03:05:05;20.40;99.90
22716;DHT22;11525;51.152;4.456;2023-06-10T03:07:35;20.40;99.90
22716;DHT22;11525;51.152;4.456;2023-06-10T03:10:01;20.60;99.90
22716;DHT22;11525;51.152;4.456;2023-06-10T03:12:29;20.70;99.90
22716;DHT22;11525;51.152;4.456;2023-06-10T03:14:55;20.60;99.90
22716;DHT22;11525;51.152;4.456;2023-06-10T03:17:21;20.60;99.90
22716;DHT22;11525;51.152;4.456;2023-06-10T03:19:50;20.60;99.90
22716;DHT22;11525;51.152;4.456;2023-06-10T03:22:16;20.40;99.90
22716;DHT22;11525;51.152;4.456;2023-06-10T03:24:42;20.40;99.90
22716;DHT22;11525;51.152;4.456;2023-06-10T03:27:15;20.30;99.90
22716;DHT22;11525;51.152;4.456;2023-06-10T03:29:44;20.30;99.90
22716;DHT22;11525;51.152;4.456;2023-06-10T03:32:10;20.40;99.90
22716;DHT22;11525;51.152;4.456;2023-06-10T03:34:37;20.20;99.90
22716;DHT22;11525;51.152;4.456;2023-06-10T03:37:04;20.20;99.90
22716;DHT22;11525;51.152;4.456;2023-06-10T03:39:33;20.40;99.90
22716;DHT22;11525;51.152;4.456;2023-06-10T03:41:59;20.40;99.90
22716;DHT22;11525;51.152;4.456;2023-06-10T03:44:25;20.30;99.90
22716;DHT22;11525;51.152;4.456;2023-06-10T03:46:55;20.30;99.90
22716;DHT22;11525;51.152;4.456;2023-06-10T03:49:21;20.30;99.90
22716;DHT22;11525;51.152;4.456;2023-06-10T03:51:52;20.40;99.90
22716;DHT22;11525;51.152;4.456;2023-06-10T03:54:18;20.50;99.90
22716;DHT22;11525;51.152;4.456;2023-06-10T03:56:44;20.40;99.90
22716;DHT22;11525;51.152;4.456;2023-06-10T03:59:10;20.30;99.90
22716;DHT22;11525;51.152;4.456;2023-06-10T04:01:36;20.40;99.90
22716;DHT22;11525;51.152;4.456;2023-06-10T04:04:03;20.40;99.90
22716;DHT22;11525;51.152;4.456;2023-06-10T04:06:29;20.30;99.90
22716;DHT22;11525;51.152;4.456;2023-06-10T04:08:55;20.20;99.90
22716;DHT22;11525;51.152;4.456;2023-06-10T04:11:25;20.20;99.90
22716;DHT22;11525;51.152;4.456;2023-06-10T04:13:51;20.20;99.90
22716;DHT22;11525;51.152;4.456;2023-06-10T04:16:17;20.10;99.90
22716;DHT22;11525;51.152;4.456;2023-06-10T04:18:42;20.10;99.90
22716;DHT22;11525;51.152;4.456;2023-06-10T04:21:16;20.10;99.90
22716;DHT22;11525;51.152;4.456;2023-06-10T04:23:42;20.10;99.90
22716;DHT22;11525;51.152;4.456;2023-06-10T04:26:08;20.10;99.90
22716;DHT22;11525;51.152;4.456;2023-06-10T04:28:34;20.20;99.90
22716;DHT22;11525;51.152;4.456;2023-06-10T04:31:06;20.30;99.90
22716;DHT22;11525;51.152;4.456;2023-06-10T04:33:32;20.20;99.90
22716;DHT22;11525;51.152;4.456;2023-06-10T04:36:00;20.40;99.90
22716;DHT22;11525;51.152;4.456;2023-06-10T04:38:38;20.40;99.90
22716;DHT22;11525;51.152;4.456;2023-06-10T04:41:13;20.60;99.90
22716;DHT22;11525;51.152;4.456;2023-06-10T04:43:39;20.70;99.90
22716;DHT22;11525;51.152;4.456;2023-06-10T04:46:08;20.90;99.90
22716;DHT22;11525;51.152;4.456;2023-06-10T04:48:34;20.90;99.90
22716;DHT22;11525;51.152;4.456;2023-06-10T04:51:01;21.00;99.90
22716;DHT22;11525;51.152;4.456;2023-06-10T04:53:27;21.10;99.90
22716;DHT22;11525;51.152;4.456;2023-06-10T04:55:54;21.20;99.90
22716;DHT22;11525;51.152;4.456;2023-06-10T04:58:26;21.30;99.90
22716;DHT22;11525;51.152;4.456;2023-06-10T05:00:55;21.30;99.90
22716;DHT22;11525;51.152;4.456;2023-06-10T05:03:20;21.50;99.90
22716;DHT22;11525;51.152;4.456;2023-06-10T05:05:46;21.60;99.90
22716;DHT22;11525;51.152;4.456;2023-06-10T05:08:12;21.60;99.90
22716;DHT22;11525;51.152;4.456;2023-06-10T05:10:38;21.90;99.90
22716;DHT22;11525;51.152;4.456;2023-06-10T05:13:04;21.80;99.90
22716;DHT22;11525;51.152;4.456;2023-06-10T05:15:30;21.80;99.90
22716;DHT22;11525;51.152;4.456;2023-06-10T05:17:59;21.60;99.90
22716;DHT22;11525;51.152;4.456;2023-06-10T05:20:25;21.60;99.90
22716;DHT22;11525;51.152;4.456;2023-06-10T05:22:52;21.50;99.90
22716;DHT22;11525;51.152;4.456;2023-06-10T05:25:18;21.60;99.90
22716;DHT22;11525;51.152;4.456;2023-06-10T05:27:45;21.70;99.90
22716;DHT22;11525;51.152;4.456;2023-06-10T05:30:11;21.60;99.90
22716;DHT22;11525;51.152;4.456;2023-06-10T05:32:37;21.70;99.90
22716;DHT22;11525;51.152;4.456;2023-06-10T05:35:03;21.80;99.90
22716;DHT22;11525;51.152;4.456;2023-06-10T05:37:30;21.90;99.90
22716;DHT22;11525;51.152;4.456;2023-06-10T05:39:56;21.90;99.90
22716;DHT22;11525;51.152;4.456;2023-06-10T05:42:25;21.80;99.90
22716;DHT22;11525;51.152;4.456;2023-06-10T05:44:51;21.70;99.90
22716;DHT22;11525;51.152;4.456;2023-06-10T05:47:17;21.80;99.90
22716;DHT22;11525;51.152;4.456;2023-06-10T05:49:42;21.80;99.90
22716;DHT22;11525;51.152;4.456;2023-06-10T05:52:11;21.90;99.90
22716;DHT22;11525;51.152;4.456;2023-06-10T05:54:39;22.20;99.90
22716;DHT22;11525;51.152;4.456;2023-06-10T05:57:10;22.60;99.90
22716;DHT22;11525;51.152;4.456;2023-06-10T05:59:39;23.10;99.90
22716;DHT22;11525;51.152;4.456;2023-06-10T06:02:05;23.30;99.90
22716;DHT22;11525;51.152;4.456;2023-06-10T06:04:31;23.20;99.90
22716;DHT22;11525;51.152;4.456;2023-06-10T06:06:57;23.50;99.90
22716;DHT22;11525;51.152;4.456;2023-06-10T06:09:24;23.60;99.90
22716;DHT22;11525;51.152;4.456;2023-06-10T06:11:50;24.20;99.90
22716;DHT22;11525;51.152;4.456;2023-06-10T06:14:23;24.90;99.90
22716;DHT22;11525;51.152;4.456;2023-06-10T06:16:49;25.30;99.90
22716;DHT22;11525;51.152;4.456;2023-06-10T06:19:16;26.00;99.90
22716;DHT22;11525;51.152;4.456;2023-06-10T06:21:42;26.50;99.90
22716;DHT22;11525;51.152;4.456;2023-06-10T06:24:14;26.60;99.90
22716;DHT22;11525;51.152;4.456;2023-06-10T06:26:40;26.60;99.20
22716;DHT22;11525;51.152;4.456;2023-06-10T06:29:08;27.70;97.90
22716;DHT22;11525;51.152;4.456;2023-06-10T06:31:33;28.30;95.10
22716;DHT22;11525;51.152;4.456;2023-06-10T06:33:59;28.70;93.90
22716;DHT22;11525;51.152;4.456;2023-06-10T06:36:28;29.20;93.00
22716;DHT22;11525;51.152;4.456;2023-06-10T06:38:55;29.70;91.00
22716;DHT22;11525;51.152;4.456;2023-06-10T06:41:21;30.00;89.30
22716;DHT22;11525;51.152;4.456;2023-06-10T06:43:47;30.50;87.80
22716;DHT22;11525;51.152;4.456;2023-06-10T06:46:13;31.00;84.40
22716;DHT22;11525;51.152;4.456;2023-06-10T06:48:39;30.60;82.20
22716;DHT22;11525;51.152;4.456;2023-06-10T06:51:14;31.00;81.40
22716;DHT22;11525;51.152;4.456;2023-06-10T06:53:43;30.80;79.20
22716;DHT22;11525;51.152;4.456;2023-06-10T06:56:12;31.40;77.70
22716;DHT22;11525;51.152;4.456;2023-06-10T06:58:38;32.40;76.10
22716;DHT22;11525;51.152;4.456;2023-06-10T07:01:04;32.40;71.50
22716;DHT22;11525;51.152;4.456;2023-06-10T07:03:29;31.40;74.50
22716;DHT22;11525;51.152;4.456;2023-06-10T07:05:55;33.00;72.80
22716;DHT22;11525;51.152;4.456;2023-06-10T07:08:24;33.20;67.80
22716;DHT22;11525;51.152;4.456;2023-06-10T07:10:53;32.40;67.90
22716;DHT22;11525;51.152;4.456;2023-06-10T07:13:19;31.70;71.30
22716;DHT22;11525;51.152;4.456;2023-06-10T07:15:49;32.40;69.30
22716;DHT22;11525;51.152;4.456;2023-06-10T07:18:18;33.70;66.60
22716;DHT22;11525;51.152;4.456;2023-06-10T07:20:44;33.90;64.70
22716;DHT22;11525;51.152;4.456;2023-06-10T07:23:10;35.50;62.30
22716;DHT22;11525;51.152;4.456;2023-06-10T07:25:36;36.30;58.00
22716;DHT22;11525;51.152;4.456;2023-06-10T07:28:03;35.30;57.50
22716;DHT22;11525;51.152;4.456;2023-06-10T07:30:28;34.40;57.60
22716;DHT22;11525;51.152;4.456;2023-06-10T07:32:55;33.10;59.70
22716;DHT22;11525;51.152;4.456;2023-06-10T07:35:21;33.80;61.50
22716;DHT22;11525;51.152;4.456;2023-06-10T07:37:50;34.60;58.70
22716;DHT22;11525;51.152;4.456;2023-06-10T07:40:16;34.70;57.90
22716;DHT22;11525;51.152;4.456;2023-06-10T07:42:42;34.80;57.50
22716;DHT22;11525;51.152;4.456;2023-06-10T07:45:09;34.00;58.50
22716;DHT22;11525;51.152;4.456;2023-06-10T07:47:37;33.80;58.90
22716;DHT22;11525;51.152;4.456;2023-06-10T07:50:03;34.50;58.30
22716;DHT22;11525;51.152;4.456;2023-06-10T07:52:29;34.40;56.90
22716;DHT22;11525;51.152;4.456;2023-06-10T07:54:59;34.40;57.40
22716;DHT22;11525;51.152;4.456;2023-06-10T07:57:25;35.50;56.20
22716;DHT22;11525;51.152;4.456;2023-06-10T07:59:51;36.10;55.00
22716;DHT22;11525;51.152;4.456;2023-06-10T08:02:17;35.80;54.30
22716;DHT22;11525;51.152;4.456;2023-06-10T08:04:45;34.90;53.40
22716;DHT22;11525;51.152;4.456;2023-06-10T08:07:14;34.50;55.30
22716;DHT22;11525;51.152;4.456;2023-06-10T08:09:49;34.80;55.10
22716;DHT22;11525;51.152;4.456;2023-06-10T08:12:18;35.70;53.40
22716;DHT22;11525;51.152;4.456;2023-06-10T08:14:49;35.50;52.30
22716;DHT22;11525;51.152;4.456;2023-06-10T08:17:18;35.10;53.90
22716;DHT22;11525;51.152;4.456;2023-06-10T08:19:43;36.30;52.80
22716;DHT22;11525;51.152;4.456;2023-06-10T08:22:09;37.60;49.50
22716;DHT22;11525;51.152;4.456;2023-06-10T08:24:35;37.90;48.50
22716;DHT22;11525;51.152;4.456;2023-06-10T08:27:06;39.30;46.80
22716;DHT22;11525;51.152;4.456;2023-06-10T08:29:33;40.00;45.80
22716;DHT22;11525;51.152;4.456;2023-06-10T08:31:59;41.40;43.80
22716;DHT22;11525;51.152;4.456;2023-06-10T08:34:30;41.90;41.90
22716;DHT22;11525;51.152;4.456;2023-06-10T08:36:55;40.70;41.70
22716;DHT22;11525;51.152;4.456;2023-06-10T08:39:22;39.60;42.50
22716;DHT22;11525;51.152;4.456;2023-06-10T08:42:15;39.60;43.20
22716;DHT22;11525;51.152;4.456;2023-06-10T08:44:54;40.20;41.60
22716;DHT22;11525;51.152;4.456;2023-06-10T08:47:29;40.30;41.50
22716;DHT22;11525;51.152;4.456;2023-06-10T08:49:57;38.70;41.90
22716;DHT22;11525;51.152;4.456;2023-06-10T08:52:35;38.70;43.00
22716;DHT22;11525;51.152;4.456;2023-06-10T08:55:13;39.60;41.20
22716;DHT22;11525;51.152;4.456;2023-06-10T08:57:41;39.50;40.60
22716;DHT22;11525;51.152;4.456;2023-06-10T09:00:12;39.00;40.90
22716;DHT22;11525;51.152;4.456;2023-06-10T09:05:29;38.90;41.80
22716;DHT22;11525;51.152;4.456;2023-06-10T09:07:56;38.70;40.40
22716;DHT22;11525;51.152;4.456;2023-06-10T09:10:22;37.80;41.50
22716;DHT22;11525;51.152;4.456;2023-06-10T09:12:57;38.20;41.40
22716;DHT22;11525;51.152;4.456;2023-06-10T09:15:30;38.10;41.30
22716;DHT22;11525;51.152;4.456;2023-06-10T09:18:34;39.70;41.40
22716;DHT22;11525;51.152;4.456;2023-06-10T09:21:00;40.50;39.10
22716;DHT22;11525;51.152;4.456;2023-06-10T09:23:32;39.10;39.00
22716;DHT22;11525;51.152;4.456;2023-06-10T09:26:00;38.80;39.90
22716;DHT22;11525;51.152;4.456;2023-06-10T09:28:32;38.20;40.80
22716;DHT22;11525;51.152;4.456;2023-06-10T09:31:07;37.10;41.50
22716;DHT22;11525;51.152;4.456;2023-06-10T09:33:46;37.80;42.40
22716;DHT22;11525;51.152;4.456;2023-06-10T09:36:21;38.40;41.50
22716;DHT22;11525;51.152;4.456;2023-06-10T09:38:49;37.90;41.00
22716;DHT22;11525;51.152;4.456;2023-06-10T09:41:16;38.40;41.50
22716;DHT22;11525;51.152;4.456;2023-06-10T09:43:44;39.20;40.90
22716;DHT22;11525;51.152;4.456;2023-06-10T09:46:19;39.20;38.70
22716;DHT22;11525;51.152;4.456;2023-06-10T09:48:47;39.10;39.40
22716;DHT22;11525;51.152;4.456;2023-06-10T09:51:14;39.10;39.60
22716;DHT22;11525;51.152;4.456;2023-06-10T09:53:42;38.30;38.70
22716;DHT22;11525;51.152;4.456;2023-06-10T09:56:11;37.90;40.20
22716;DHT22;11525;51.152;4.456;2023-06-10T09:58:40;37.70;40.00
22716;DHT22;11525;51.152;4.456;2023-06-10T10:01:10;38.10;38.80
22716;DHT22;11525;51.152;4.456;2023-06-10T10:03:52;38.70;39.00
22716;DHT22;11525;51.152;4.456;2023-06-10T10:06:23;39.10;39.00
22716;DHT22;11525;51.152;4.456;2023-06-10T10:08:51;39.60;37.60
22716;DHT22;11525;51.152;4.456;2023-06-10T10:11:25;39.50;37.80
22716;DHT22;11525;51.152;4.456;2023-06-10T10:13:52;39.60;37.30
22716;DHT22;11525;51.152;4.456;2023-06-10T10:16:58;39.70;35.80
22716;DHT22;11525;51.152;4.456;2023-06-10T10:19:27;38.20;36.20
22716;DHT22;11525;51.152;4.456;2023-06-10T10:21:56;37.60;37.60
22716;DHT22;11525;51.152;4.456;2023-06-10T10:24:33;38.30;36.80
22716;DHT22;11525;51.152;4.456;2023-06-10T10:27:07;38.80;36.00
22716;DHT22;11525;51.152;4.456;2023-06-10T10:29:39;38.60;36.30
22716;DHT22;11525;51.152;4.456;2023-06-10T10:32:14;37.70;37.00
22716;DHT22;11525;51.152;4.456;2023-06-10T10:34:53;37.90;37.10
22716;DHT22;11525;51.152;4.456;2023-06-10T10:37:20;37.70;37.10
22716;DHT22;11525;51.152;4.456;2023-06-10T10:39:48;37.50;36.70
22716;DHT22;11525;51.152;4.456;2023-06-10T10:42:23;37.80;36.20
22716;DHT22;11525;51.152;4.456;2023-06-10T10:44:50;37.20;37.30
22716;DHT22;11525;51.152;4.456;2023-06-10T10:47:21;36.60;37.90
22716;DHT22;11525;51.152;4.456;2023-06-10T10:49:51;36.80;37.70
22716;DHT22;11525;51.152;4.456;2023-06-10T10:52:18;37.70;36.50
22716;DHT22;11525;51.152;4.456;2023-06-10T10:54:46;38.30;35.50
22716;DHT22;11525;51.152;4.456;2023-06-10T10:57:23;37.40;35.70
22716;DHT22;11525;51.152;4.456;2023-06-10T11:02:34;35.80;38.70
22716;DHT22;11525;51.152;4.456;2023-06-10T11:05:01;34.10;40.00
22716;DHT22;11525;51.152;4.456;2023-06-10T11:07:29;33.50;41.00
22716;DHT22;11525;51.152;4.456;2023-06-10T11:15:18;32.00;43.30
22716;DHT22;11525;51.152;4.456;2023-06-10T11:23:09;31.80;44.30
22716;DHT22;11525;51.152;4.456;2023-06-10T11:25:40;32.00;43.70
22716;DHT22;11525;51.152;4.456;2023-06-10T11:28:19;31.70;42.90
22716;DHT22;11525;51.152;4.456;2023-06-10T11:30:46;31.80;42.60
22716;DHT22;11525;51.152;4.456;2023-06-10T11:33:16;31.30;43.30
22716;DHT22;11525;51.152;4.456;2023-06-10T11:35:43;31.00;43.20
22716;DHT22;11525;51.152;4.456;2023-06-10T11:38:09;30.90;44.70
22716;DHT22;11525;51.152;4.456;2023-06-10T11:40:37;31.20;43.80
22716;DHT22;11525;51.152;4.456;2023-06-10T11:43:04;31.40;43.20
22716;DHT22;11525;51.152;4.456;2023-06-10T11:45:30;31.50;43.00
22716;DHT22;11525;51.152;4.456;2023-06-10T11:47:59;31.40;42.70
22716;DHT22;11525;51.152;4.456;2023-06-10T11:50:33;31.30;43.40
22716;DHT22;11525;51.152;4.456;2023-06-10T11:52:59;31.20;43.80
22716;DHT22;11525;51.152;4.456;2023-06-10T11:55:48;31.30;43.60
22716;DHT22;11525;51.152;4.456;2023-06-10T11:58:19;31.10;43.60
22716;DHT22;11525;51.152;4.456;2023-06-10T12:00:53;31.50;43.50
22716;DHT22;11525;51.152;4.456;2023-06-10T12:03:19;31.50;43.40
22716;DHT22;11525;51.152;4.456;2023-06-10T12:05:59;31.60;42.50
22716;DHT22;11525;51.152;4.456;2023-06-10T12:08:25;31.40;42.50
22716;DHT22;11525;51.152;4.456;2023-06-10T12:10:51;31.30;43.90
22716;DHT22;11525;51.152;4.456;2023-06-10T12:13:17;31.30;43.50
22716;DHT22;11525;51.152;4.456;2023-06-10T12:15:44;31.20;45.10
22716;DHT22;11525;51.152;4.456;2023-06-10T12:18:30;31.20;44.40
22716;DHT22;11525;51.152;4.456;2023-06-10T12:20:58;31.30;44.80
22716;DHT22;11525;51.152;4.456;2023-06-10T12:23:27;31.40;43.50
22716;DHT22;11525;51.152;4.456;2023-06-10T12:25:54;31.20;42.10
22716;DHT22;11525;51.152;4.456;2023-06-10T12:28:23;31.30;42.50
22716;DHT22;11525;51.152;4.456;2023-06-10T12:30:50;31.50;43.60
22716;DHT22;11525;51.152;4.456;2023-06-10T12:33:19;31.50;43.60
22716;DHT22;11525;51.152;4.456;2023-06-10T12:35:52;31.60;42.10
22716;DHT22;11525;51.152;4.456;2023-06-10T12:38:22;31.50;41.80
22716;DHT22;11525;51.152;4.456;2023-06-10T12:40:50;31.40;42.10
22716;DHT22;11525;51.152;4.456;2023-06-10T12:43:25;31.20;42.90
22716;DHT22;11525;51.152;4.456;2023-06-10T12:45:51;31.40;43.90
22716;DHT22;11525;51.152;4.456;2023-06-10T12:50:50;31.40;42.60
22716;DHT22;11525;51.152;4.456;2023-06-10T12:53:16;31.40;42.60
22716;DHT22;11525;51.152;4.456;2023-06-10T12:55:42;31.60;42.90
22716;DHT22;11525;51.152;4.456;2023-06-10T12:58:10;31.60;42.30
22716;DHT22;11525;51.152;4.456;2023-06-10T13:00:36;31.40;42.50
22716;DHT22;11525;51.152;4.456;2023-06-10T13:03:02;31.40;42.00
22716;DHT22;11525;51.152;4.456;2023-06-10T13:05:31;31.30;42.50
22716;DHT22;11525;51.152;4.456;2023-06-10T13:07:57;31.40;43.00
22716;DHT22;11525;51.152;4.456;2023-06-10T13:10:23;31.30;42.70
22716;DHT22;11525;51.152;4.456;2023-06-10T13:12:50;31.20;42.30
22716;DHT22;11525;51.152;4.456;2023-06-10T13:15:16;31.40;42.30
22716;DHT22;11525;51.152;4.456;2023-06-10T13:17:51;31.40;42.60
22716;DHT22;11525;51.152;4.456;2023-06-10T13:20:40;31.40;43.20
22716;DHT22;11525;51.152;4.456;2023-06-10T13:23:08;31.30;42.80
22716;DHT22;11525;51.152;4.456;2023-06-10T13:25:34;31.20;43.30
22716;DHT22;11525;51.152;4.456;2023-06-10T13:27:59;31.20;43.20
22716;DHT22;11525;51.152;4.456;2023-06-10T13:30:25;31.00;42.00
22716;DHT22;11525;51.152;4.456;2023-06-10T13:32:51;31.20;43.30
22716;DHT22;11525;51.152;4.456;2023-06-10T13:35:17;31.20;43.30
22716;DHT22;11525;51.152;4.456;2023-06-10T13:37:43;31.20;43.10
22716;DHT22;11525;51.152;4.456;2023-06-10T13:40:09;31.40;43.70
22716;DHT22;11525;51.152;4.456;2023-06-10T13:42:35;31.40;42.70
22716;DHT22;11525;51.152;4.456;2023-06-10T13:45:03;31.10;43.40
22716;DHT22;11525;51.152;4.456;2023-06-10T13:47:29;31.20;43.10
22716;DHT22;11525;51.152;4.456;2023-06-10T13:49:55;31.40;43.50
22716;DHT22;11525;51.152;4.456;2023-06-10T13:52:21;31.50;42.50
22716;DHT22;11525;51.152;4.456;2023-06-10T13:54:47;31.50;43.30
22716;DHT22;11525;51.152;4.456;2023-06-10T13:57:13;31.20;42.50
22716;DHT22;11525;51.152;4.456;2023-06-10T13:59:38;31.20;43.10
22716;DHT22;11525;51.152;4.456;2023-06-10T14:02:04;31.30;43.20
22716;DHT22;11525;51.152;4.456;2023-06-10T14:04:30;31.40;42.80
22716;DHT22;11525;51.152;4.456;2023-06-10T14:06:56;31.10;43.00
22716;DHT22;11525;51.152;4.456;2023-06-10T14:09:23;31.10;43.70
22716;DHT22;11525;51.152;4.456;2023-06-10T14:11:48;31.20;42.90
22716;DHT22;11525;51.152;4.456;2023-06-10T14:14:14;31.20;43.20
22716;DHT22;11525;51.152;4.456;2023-06-10T14:16:40;31.20;43.00
22716;DHT22;11525;51.152;4.456;2023-06-10T14:19:06;31.20;42.60
22716;DHT22;11525;51.152;4.456;2023-06-10T14:21:32;31.20;43.10
22716;DHT22;11525;51.152;4.456;2023-06-10T14:23:57;31.20;42.90
22716;DHT22;11525;51.152;4.456;2023-06-10T14:26:25;31.10;42.80
22716;DHT22;11525;51.152;4.456;2023-06-10T14:28:51;31.00;43.60
22716;DHT22;11525;51.152;4.456;2023-06-10T14:31:17;31.20;42.70
22716;DHT22;11525;51.152;4.456;2023-06-10T14:33:43;31.00;43.20
22716;DHT22;11525;51.152;4.456;2023-06-10T14:36:10;31.00;42.60
22716;DHT22;11525;51.152;4.456;2023-06-10T14:38:36;31.00;42.70
22716;DHT22;11525;51.152;4.456;2023-06-10T14:41:01;31.00;43.50
22716;DHT22;11525;51.152;4.456;2023-06-10T14:43:27;31.00;43.70
22716;DHT22;11525;51.152;4.456;2023-06-10T14:45:53;30.90;44.70
22716;DHT22;11525;51.152;4.456;2023-06-10T14:48:21;30.90;43.90
22716;DHT22;11525;51.152;4.456;2023-06-10T14:50:47;31.00;43.10
22716;DHT22;11525;51.152;4.456;2023-06-10T14:53:16;31.10;43.40
22716;DHT22;11525;51.152;4.456;2023-06-10T14:55:42;31.10;43.00
22716;DHT22;11525;51.152;4.456;2023-06-10T14:58:08;31.10;42.10
22716;DHT22;11525;51.152;4.456;2023-06-10T15:00:34;30.90;42.00
22716;DHT22;11525;51.152;4.456;2023-06-10T15:02:59;31.00;42.50
22716;DHT22;11525;51.152;4.456;2023-06-10T15:05:25;30.90;42.10
22716;DHT22;11525;51.152;4.456;2023-06-10T15:07:51;31.00;43.20
22716;DHT22;11525;51.152;4.456;2023-06-10T15:10:16;31.10;42.90
22716;DHT22;11525;51.152;4.456;2023-06-10T15:12:43;31.20;42.40
22716;DHT22;11525;51.152;4.456;2023-06-10T15:15:09;31.40;42.20
22716;DHT22;11525;51.152;4.456;2023-06-10T15:17:35;31.30;43.00
22716;DHT22;11525;51.152;4.456;2023-06-10T15:20:02;31.40;43.30
22716;DHT22;11525;51.152;4.456;2023-06-10T15:22:28;31.50;42.10
22716;DHT22;11525;51.152;4.456;2023-06-10T15:24:54;31.40;42.50
22716;DHT22;11525;51.152;4.456;2023-06-10T15:27:22;31.20;42.20
22716;DHT22;11525;51.152;4.456;2023-06-10T15:29:49;31.20;41.80
22716;DHT22;11525;51.152;4.456;2023-06-10T15:32:15;31.10;42.10
22716;DHT22;11525;51.152;4.456;2023-06-10T15:34:41;31.20;42.60
22716;DHT22;11525;51.152;4.456;2023-06-10T15:37:07;31.20;42.00
22716;DHT22;11525;51.152;4.456;2023-06-10T15:39:32;31.20;42.30
22716;DHT22;11525;51.152;4.456;2023-06-10T15:41:58;31.20;40.90
22716;DHT22;11525;51.152;4.456;2023-06-10T15:44:24;31.10;40.20
22716;DHT22;11525;51.152;4.456;2023-06-10T15:46:50;31.00;40.50
22716;DHT22;11525;51.152;4.456;2023-06-10T15:49:16;30.90;41.20
22716;DHT22;11525;51.152;4.456;2023-06-10T15:51:42;30.90;41.40
22716;DHT22;11525;51.152;4.456;2023-06-10T15:54:07;30.90;41.90
22716;DHT22;11525;51.152;4.456;2023-06-10T15:56:36;31.00;41.30